TimeCDT,TemperatureF,Dew PointF,Humidity,Sea Level PressureIn,VisibilityMPH,Wind Direction,Wind SpeedMPH,Gust SpeedMPH,PrecipitationIn,Events,Conditions,WindDirDegrees,DateUTC
12:09 AM,51.8,46.4,82,30.05,10.0,North,11.5,-,N/A,,Overcast,360,2013-05-23 05:09:00
12:38 AM,51.8,44.6,76,30.06,10.0,North,9.2,-,N/A,,Partly Cloudy,360,2013-05-23 05:38:00
12:53 AM,50.0,45.0,83,30.06,10.0,North,9.2,-,N/A,,Clear,360,2013-05-23 05:53:00
1:49 AM,50.0,46.4,87,30.07,10.0,NNW,8.1,-,N/A,,Mostly Cloudy,340,2013-05-23 06:49:00
1:53 AM,50.0,46.0,86,30.07,10.0,NNW,9.2,-,N/A,,Mostly Cloudy,340,2013-05-23 06:53:00
2:53 AM,51.1,46.0,83,30.07,10.0,North,11.5,-,N/A,,Overcast,360,2013-05-23 07:53:00
3:35 AM,51.8,46.4,82,30.09,10.0,North,11.5,-,N/A,,Overcast,350,2013-05-23 08:35:00
3:53 AM,51.1,46.0,83,30.08,10.0,North,16.1,-,N/A,,Overcast,360,2013-05-23 08:53:00
4:53 AM,51.1,46.0,83,30.10,10.0,North,9.2,-,N/A,,Overcast,360,2013-05-23 09:53:00
5:53 AM,51.1,46.9,86,30.13,10.0,NNW,6.9,-,N/A,,Overcast,340,2013-05-23 10:53:00
6:53 AM,51.1,46.0,83,30.15,10.0,NNW,8.1,-,N/A,,Overcast,340,2013-05-23 11:53:00
7:53 AM,53.1,46.9,80,30.18,10.0,NNW,9.2,-,N/A,,Overcast,340,2013-05-23 12:53:00
8:53 AM,53.1,46.9,80,30.18,10.0,NNE,9.2,-,N/A,,Overcast,30,2013-05-23 13:53:00
9:53 AM,53.1,46.9,80,30.20,10.0,NNE,13.8,-,N/A,,Overcast,30,2013-05-23 14:53:00
10:53 AM,52.0,46.9,83,30.19,10.0,NE,13.8,-,N/A,,Overcast,50,2013-05-23 15:53:00
11:38 AM,53.6,48.2,82,30.18,10.0,NE,13.8,-,N/A,,Overcast,50,2013-05-23 16:38:00
11:53 AM,55.0,48.0,77,30.20,10.0,NE,12.7,20.7,N/A,,Overcast,50,2013-05-23 16:53:00
12:53 PM,57.9,48.9,72,30.20,10.0,ENE,13.8,-,N/A,,Overcast,60,2013-05-23 17:53:00
1:06 PM,57.2,48.2,72,30.19,10.0,ENE,16.1,-,N/A,,Mostly Cloudy,60,2013-05-23 18:06:00
1:15 PM,59.0,50.0,72,30.19,10.0,ENE,15.0,-,N/A,,Scattered Clouds,70,2013-05-23 18:15:00
1:53 PM,63.0,50.0,63,30.19,10.0,ENE,13.8,-,N/A,,Clear,70,2013-05-23 18:53:00
2:53 PM,66.0,50.0,56,30.19,10.0,ENE,11.5,20.7,N/A,,Clear,70,2013-05-23 19:53:00
3:53 PM,66.0,50.0,56,30.17,10.0,ESE,11.5,18.4,N/A,,Partly Cloudy,110,2013-05-23 20:53:00
4:53 PM,66.9,48.0,51,30.17,10.0,SE,10.4,17.3,N/A,,Partly Cloudy,130,2013-05-23 21:53:00
5:53 PM,66.9,48.9,52,30.16,10.0,ESE,9.2,18.4,N/A,,Clear,110,2013-05-23 22:53:00
6:53 PM,66.0,48.0,52,30.16,10.0,SE,11.5,-,N/A,,Clear,130,2013-05-23 23:53:00
7:53 PM,64.9,46.9,52,30.15,10.0,SE,12.7,-,N/A,,Clear,130,2013-05-24 00:53:00
8:53 PM,62.1,48.0,60,30.16,10.0,ESE,6.9,-,N/A,,Clear,110,2013-05-24 01:53:00
9:53 PM,60.1,48.0,64,30.17,10.0,SE,8.1,-,N/A,,Clear,140,2013-05-24 02:53:00
10:53 PM,57.9,48.9,72,30.21,10.0,SSE,6.9,-,N/A,,Clear,150,2013-05-24 03:53:00
11:53 PM,55.0,50.0,83,30.19,10.0,ESE,8.1,-,N/A,,Clear,120,2013-05-24 04:53:00